Time;durP1;ratioP1;P1;durP2;ratioP2;P2;SDS_P1;SDS_P2;PMS_P1;PMS_P2;Temp;Humidity;BMP_temperature;BMP_pressure;BME280_temperature;BME280_humidity;BME280_pressure;Samples;Min_cycle;Max_cycle;Signal;HPM_P1;HPM_P2
2022/08/02 00:01:02;;;;;;;;;;;;;;;21.52;54.40;99106.59;2619622;54;19950;-68
2022/08/02 00:03:32;;;;;;;;;;;;;;;21.49;54.15;99102.53;2618265;54;19969;-67
2022/08/02 00:06:01;;;;;;;;;;;;;;;21.46;54.59;99096.84;2618925;39;20319;-66
2022/08/02 00:08:34;;;;;;;;;;;;;;;21.35;54.61;99104.03;2618468;54;19977;-67
2022/08/02 00:11:03;;;;;;;;;;;;;;;21.22;55.05;99104.38;2618485;54;19938;-68
2022/08/02 00:13:32;;;;;;;;;;;;;;;21.14;54.95;99108.34;2618678;54;19981;-68
2022/08/02 00:16:02;;;;;;;;;;;;;;;21.11;55.13;99108.88;2618991;54;19946;-67
2022/08/02 00:18:31;;;;;;;;;;;;;;;21.11;55.20;99110.75;2618536;54;19946;-66
2022/08/02 00:21:01;;;;;;;;;;;;;;;21.07;55.71;99115.03;2618269;47;19943;-68
2022/08/02 00:23:33;;;;;;;;;;;;;;;20.97;55.81;99110.31;2619220;39;20354;-67
2022/08/02 00:26:23;;;;;;;;;;;;;;;20.96;55.78;99101.47;2618309;54;19947;-68
2022/08/02 00:28:53;;;;;;;;;;;;;;;20.95;55.79;99110.59;2618747;54;19939;-68
2022/08/02 00:31:22;;;;;;;;;;;;;;;20.96;55.84;99111.41;2618236;47;19953;-66
2022/08/02 00:33:52;;;;;;;;;;;;;;;20.95;55.65;99110.59;2619128;54;19942;-69
2022/08/02 00:36:41;;;;;;;;;;;;;;;21.02;55.86;99108.53;2619119;47;19973;-67
2022/08/02 00:39:13;;;;;;;;;;;;;;;21.01;55.83;99111.44;2620182;54;19950;-68
2022/08/02 00:42:03;;;;;;;;;;;;;;;21.08;55.74;99108.56;2622190;54;19954;-68
2022/08/02 00:44:32;;;;;;;;;;;;;;;21.03;55.64;99114.72;2621150;54;19939;-66
2022/08/02 00:47:02;;;;;;;;;;;;;;;20.97;55.76;99111.13;2621917;39;20323;-67
2022/08/02 00:49:31;;;;;;;;;;;;;;;20.90;55.42;99115.91;2619729;54;19947;-66
2022/08/02 00:52:01;;;;;;;;;;;;;;;20.91;56.11;99116.72;2619434;54;19951;-66
2022/08/02 00:54:34;;;;;;;;;;;;;;;20.88;55.96;99107.28;2619995;54;19945;-67
2022/08/02 00:57:03;;;;;;;;;;;;;;;20.81;56.01;99106.66;2618636;54;19947;-66
2022/08/02 00:59:33;;;;;;;;;;;;;;;20.81;56.43;99100.47;2619705;54;19942;-67
2022/08/02 01:02:02;;;;;;;;;;;;;;;20.78;56.23;99108.00;2620018;39;20358;-68
2022/08/02 01:04:32;;;;;;;;;;;;;;;20.81;56.49;99095.91;2619337;47;19958;-66
2022/08/02 01:07:02;;;;;;;;;;;;;;;20.83;56.28;99101.06;2619802;54;20457;-67
2022/08/02 01:09:44;;;;;;;;;;;;;;;20.82;56.22;99100.25;2619830;47;19942;-67
2022/08/02 01:12:14;;;;;;;;;;;;;;;20.83;56.31;99101.88;2619679;54;19953;-67
2022/08/02 01:14:45;;;;;;;;;;;;;;;20.79;56.47;99098.06;2619953;54;19946;-67
2022/08/02 01:17:19;;;;;;;;;;;;;;;20.77;55.99;99110.91;2619949;54;19998;-66
2022/08/02 01:19:52;;;;;;;;;;;;;;;20.77;56.19;99100.97;2623487;54;19947;-68
2022/08/02 01:22:38;;;;;;;;;;;;;;;20.69;56.37;99112.16;2623670;54;19947;-68
2022/08/02 01:25:46;;;;;;;;;;;;;;;20.62;56.46;99108.06;2620027;54;19990;-66
2022/08/02 01:28:31;;;;;;;;;;;;;;;20.60;56.71;99110.19;2618916;54;19939;-67
2022/08/02 01:31:06;;;;;;;;;;;;;;;20.31;56.53;99104.97;2619028;54;20727;-67
2022/08/02 01:33:39;;;;;;;;;;;;;;;20.03;57.53;99112.09;2619547;54;19973;-67
2022/08/02 01:36:11;;;;;;;;;;;;;;;20.01;58.21;99108.03;2619291;54;20477;-69
2022/08/02 01:38:41;;;;;;;;;;;;;;;20.02;58.04;99106.97;2619486;54;19938;-66
2022/08/02 01:41:14;;;;;;;;;;;;;;;20.02;57.83;99109.66;2618903;54;19958;-67
2022/08/02 01:43:45;;;;;;;;;;;;;;;20.04;58.24;99108.38;2619772;54;19946;-68
2022/08/02 01:46:18;;;;;;;;;;;;;;;20.06;57.87;99110.00;2619566;54;20423;-67
2022/08/02 01:48:48;;;;;;;;;;;;;;;20.01;58.42;99113.41;2619438;47;19953;-66
2022/08/02 01:51:18;;;;;;;;;;;;;;;19.94;58.72;99123.50;2619958;54;19970;-68
2022/08/02 01:53:51;;;;;;;;;;;;;;;19.95;58.17;99122.44;2620148;54;19939;-67
2022/08/02 01:56:21;;;;;;;;;;;;;;;19.96;58.85;99121.38;2620981;54;19939;-67
2022/08/02 01:58:52;;;;;;;;;;;;;;;19.93;58.76;99117.31;2621486;54;19939;-66
2022/08/02 02:01:24;;;;;;;;;;;;;;;19.89;58.70;99123.44;2622333;54;19953;-66
2022/08/02 02:03:54;;;;;;;;;;;;;;;19.81;59.07;99119.28;2623967;54;19947;-68
2022/08/02 02:06:24;;;;;;;;;;;;;;;19.73;58.90;99125.06;2623326;54;20454;-66
2022/08/02 02:08:54;;;;;;;;;;;;;;;19.73;59.34;99122.38;2624093;54;19946;-68
2022/08/02 02:11:23;;;;;;;;;;;;;;;19.72;59.11;99132.28;2623592;54;19951;-67
2022/08/02 02:14:14;;;;;;;;;;;;;;;19.68;59.24;99122.31;2623351;54;19975;-66
2022/08/02 02:16:50;;;;;;;;;;;;;;;19.71;59.54;99125.28;2622135;47;19939;-65
2022/08/02 02:19:23;;;;;;;;;;;;;;;19.62;59.50;99129.44;2623542;54;19946;-66
2022/08/02 02:21:53;;;;;;;;;;;;;;;19.57;59.78;99129.34;2622302;54;19947;-67
2022/08/02 02:24:22;;;;;;;;;;;;;;;19.62;59.32;99118.72;2623715;54;20426;-66
2022/08/02 02:26:52;;;;;;;;;;;;;;;19.62;59.83;99110.66;2622454;47;19969;-67
2022/08/02 02:29:26;;;;;;;;;;;;;;;19.64;59.80;99115.81;2623185;47;19947;-67
2022/08/02 02:32:00;;;;;;;;;;;;;;;19.53;59.69;99110.22;2623452;54;19950;-67
2022/08/02 02:34:33;;;;;;;;;;;;;;;19.56;59.99;99106.25;2622615;47;19945;-69
2022/08/02 02:37:05;;;;;;;;;;;;;;;19.58;59.61;99101.44;2622676;54;20026;-67
2022/08/02 02:39:35;;;;;;;;;;;;;;;19.62;59.98;99104.50;2622668;54;19943;-68
2022/08/02 02:42:05;;;;;;;;;;;;;;;19.59;59.80;99103.06;2622160;54;19946;-68
2022/08/02 02:44:35;;;;;;;;;;;;;;;19.58;59.83;99106.00;2621510;54;20314;-67
2022/08/02 02:47:10;;;;;;;;;;;;;;;19.56;59.76;99106.25;2621286;54;19947;-67
2022/08/02 02:49:40;;;;;;;;;;;;;;;19.57;59.66;99107.06;2619809;54;19942;-67
2022/08/02 02:52:10;;;;;;;;;;;;;;;19.61;59.90;99108.22;2618827;54;19945;-67
2022/08/02 02:54:40;;;;;;;;;;;;;;;19.38;60.08;99101.94;2618838;54;19994;-66
2022/08/02 02:57:10;;;;;;;;;;;;;;;19.32;59.97;99094.88;2618094;54;19939;-67
2022/08/02 02:59:41;;;;;;;;;;;;;;;19.15;60.69;99115.47;2618298;51;19951;-67
2022/08/02 03:02:21;;;;;;;;;;;;;;;19.06;60.82;99112.34;2618298;46;20518;-67
2022/08/02 03:04:51;;;;;;;;;;;;;;;19.08;61.40;99112.94;2618014;54;19938;-66
2022/08/02 03:07:26;;;;;;;;;;;;;;;19.19;61.05;99113.94;2618689;54;19954;-68
2022/08/02 03:09:56;;;;;;;;;;;;;;;19.27;60.80;99110.88;2619240;54;19953;-68
2022/08/02 03:12:26;;;;;;;;;;;;;;;19.30;61.02;99118.41;2621896;54;19939;-68
2022/08/02 03:15:00;;;;;;;;;;;;;;;19.30;60.84;99124.56;2623100;54;19954;-67
2022/08/02 03:17:41;;;;;;;;;;;;;;;19.26;60.92;99126.13;2622648;54;19947;-68
2022/08/02 03:20:12;;;;;;;;;;;;;;;19.22;61.21;99121.47;2622467;54;19962;-67
2022/08/02 03:22:42;;;;;;;;;;;;;;;19.29;60.44;99125.63;2621729;54;19938;-65
2022/08/02 03:25:11;;;;;;;;;;;;;;;19.31;60.84;99128.09;2618680;47;19950;-67
2022/08/02 03:27:41;;;;;;;;;;;;;;;19.29;60.83;99124.81;2619167;54;19946;-65
2022/08/02 03:30:12;;;;;;;;;;;;;;;19.33;60.98;99123.28;2619397;54;19946;-65
2022/08/02 03:32:45;;;;;;;;;;;;;;;19.36;60.78;99125.50;2621865;54;19938;-67
2022/08/02 03:35:15;;;;;;;;;;;;;;;19.40;60.42;99117.78;2622773;39;20335;-67
2022/08/02 03:37:52;;;;;;;;;;;;;;;19.43;60.06;99112.75;2619996;54;19939;-67
2022/08/02 03:40:22;;;;;;;;;;;;;;;19.34;60.57;99108.00;2621876;54;19939;-67
2022/08/02 03:42:51;;;;;;;;;;;;;;;19.34;60.60;99111.50;2620769;54;19939;-66
2022/08/02 03:45:21;;;;;;;;;;;;;;;19.33;60.70;99114.44;2619880;54;19946;-68
2022/08/02 03:47:53;;;;;;;;;;;;;;;19.36;60.50;99114.78;2620854;39;20339;-67
2022/08/02 03:50:28;;;;;;;;;;;;;;;19.35;60.73;99109.63;2620524;54;19946;-67
2022/08/02 03:52:58;;;;;;;;;;;;;;;19.45;60.33;99107.94;2620513;54;19946;-67
2022/08/02 03:55:27;;;;;;;;;;;;;;;19.41;60.07;99101.44;2620579;54;19947;-67
2022/08/02 03:57:57;;;;;;;;;;;;;;;19.25;60.50;99096.88;2619863;54;19947;-67
2022/08/02 04:03:25;;;;;;;;;;;;;;;19.19;60.74;99106.72;2616061;54;19989;-68
2022/08/02 04:05:55;;;;;;;;;;;;;;;19.24;61.02;99109.47;2622429;54;19952;-68
2022/08/02 04:08:32;;;;;;;;;;;;;;;19.32;60.82;99108.28;2623629;54;19946;-67
2022/08/02 04:13:48;;;;;;;;;;;;;;;19.22;60.57;99110.75;2623024;54;19945;-68
2022/08/02 04:16:21;;;;;;;;;;;;;;;19.22;61.11;99114.25;2619264;39;20313;-65
2022/08/02 04:18:56;;;;;;;;;;;;;;;19.24;61.14;99114.84;2618572;47;19938;-66
2022/08/02 04:21:28;;;;;;;;;;;;;;;19.42;60.38;99118.34;2619530;54;19958;-66
2022/08/02 04:24:18;;;;;;;;;;;;;;;19.42;60.54;99107.63;2619822;46;19970;-67
2022/08/02 04:26:50;;;;;;;;;;;;;;;19.51;60.34;99111.50;2618360;54;20074;-66
2022/08/02 04:29:21;;;;;;;;;;;;;;;19.42;60.31;99110.31;2619037;54;19965;-66
2022/08/02 04:31:51;;;;;;;;;;;;;;;19.32;60.40;99112.81;2620140;47;19938;-66
2022/08/02 04:34:23;;;;;;;;;;;;;;;19.16;60.92;99123.25;2622412;39;20386;-67
2022/08/02 04:36:53;;;;;;;;;;;;;;;19.13;61.52;99121.06;2622129;54;19946;-66
2022/08/02 04:39:22;;;;;;;;;;;;;;;19.15;61.42;99127.00;2621677;47;19951;-67
2022/08/02 04:41:51;;;;;;;;;;;;;;;19.22;60.70;99126.84;2622266;54;19939;-67
2022/08/02 04:44:25;;;;;;;;;;;;;;;19.17;60.97;99132.13;2623024;54;19950;-67
2022/08/02 04:46:57;;;;;;;;;;;;;;;19.12;61.70;99132.03;2622673;54;19989;-67
2022/08/02 04:49:28;;;;;;;;;;;;;;;19.13;61.77;99137.13;2622473;54;20426;-66
2022/08/02 04:51:59;;;;;;;;;;;;;;;19.18;61.75;99136.41;2621454;47;19939;-66
2022/08/02 04:54:29;;;;;;;;;;;;;;;19.30;61.56;99139.84;2622876;54;19947;-66
2022/08/02 04:56:58;;;;;;;;;;;;;;;19.23;61.28;99142.69;2621734;54;19938;-66
2022/08/02 04:59:28;;;;;;;;;;;;;;;19.19;61.57;99141.56;2621760;54;20478;-67
2022/08/02 05:01:57;;;;;;;;;;;;;;;19.24;61.53;99135.47;2618793;47;19947;-66
2022/08/02 05:04:29;;;;;;;;;;;;;;;19.23;61.90;99140.03;2618998;54;20462;-67
2022/08/02 05:06:59;;;;;;;;;;;;;;;19.36;61.32;99146.94;2618051;47;19946;-68
2022/08/02 05:09:28;;;;;;;;;;;;;;;19.50;61.44;99137.53;2618678;54;19939;-67
2022/08/02 05:11:58;;;;;;;;;;;;;;;19.46;61.27;99143.63;2618882;54;19990;-68
2022/08/02 05:14:27;;;;;;;;;;;;;;;19.52;61.44;99142.66;2618813;54;19969;-67
2022/08/02 05:16:56;;;;;;;;;;;;;;;19.62;60.91;99137.47;2618840;54;20421;-66
2022/08/02 05:19:26;;;;;;;;;;;;;;;19.69;60.96;99138.16;2619036;54;19946;-66
2022/08/02 05:21:58;;;;;;;;;;;;;;;19.59;60.40;99139.81;2619515;39;20385;-67
2022/08/02 05:24:27;;;;;;;;;;;;;;;19.46;60.95;99132.88;2618745;47;19938;-67
2022/08/02 05:26:56;;;;;;;;;;;;;;;19.49;61.48;99135.09;2618583;47;19942;-67
2022/08/02 05:29:26;;;;;;;;;;;;;;;19.51;61.18;99132.97;2619003;54;19954;-67
2022/08/02 05:31:55;;;;;;;;;;;;;;;19.68;61.10;99136.53;2619944;54;19939;-66
2022/08/02 05:34:25;;;;;;;;;;;;;;;19.79;60.55;99142.84;2620306;54;19939;-67
2022/08/02 05:36:54;;;;;;;;;;;;;;;20.01;60.61;99132.19;2620063;54;19950;-66
2022/08/02 05:39:27;;;;;;;;;;;;;;;20.18;59.95;99145.59;2620640;54;19954;-66
2022/08/02 05:42:00;;;;;;;;;;;;;;;20.30;59.69;99135.56;2620243;54;19946;-66
2022/08/02 05:44:29;;;;;;;;;;;;;;;20.44;59.84;99136.00;2619542;54;19939;-68
2022/08/02 05:46:58;;;;;;;;;;;;;;;20.59;59.21;99146.97;2620096;54;19947;-67
2022/08/02 05:49:28;;;;;;;;;;;;;;;20.76;58.90;99149.59;2619594;47;19946;-68
2022/08/02 05:52:03;;;;;;;;;;;;;;;20.88;58.47;99144.91;2623004;54;19946;-68
2022/08/02 05:54:38;;;;;;;;;;;;;;;20.92;58.17;99143.34;2621378;54;19939;-68
2022/08/02 05:57:12;;;;;;;;;;;;;;;20.98;57.79;99139.66;2620665;54;19946;-68
2022/08/02 05:59:46;;;;;;;;;;;;;;;20.99;58.18;99145.84;2620534;39;20346;-68
2022/08/02 06:02:19;;;;;;;;;;;;;;;20.99;58.14;99154.72;2619864;39;20361;-68
2022/08/02 06:04:58;;;;;;;;;;;;;;;20.96;57.87;99160.59;2619460;46;19947;-68
2022/08/02 06:07:27;;;;;;;;;;;;;;;21.02;57.31;99156.91;2619716;54;19954;-68
2022/08/02 06:10:00;;;;;;;;;;;;;;;21.26;57.19;99156.59;2619688;54;19947;-65
2022/08/02 06:12:30;;;;;;;;;;;;;;;21.44;57.09;99144.72;2619949;54;19946;-68
2022/08/02 06:15:00;;;;;;;;;;;;;;;21.68;56.73;99137.13;2619933;54;20425;-67
2022/08/02 06:17:30;;;;;;;;;;;;;;;21.83;56.20;99141.78;2621087;54;19947;-67
2022/08/02 06:20:01;;;;;;;;;;;;;;;21.79;55.68;99146.88;2620381;54;19954;-65
2022/08/02 06:22:31;;;;;;;;;;;;;;;21.77;55.66;99141.75;2621069;54;19940;-65
2022/08/02 06:25:09;;;;;;;;;;;;;;;21.81;55.69;99147.44;2620144;54;19953;-67
2022/08/02 06:27:59;;;;;;;;;;;;;;;21.87;55.37;99145.59;2619463;54;19961;-67
2022/08/02 06:30:29;;;;;;;;;;;;;;;21.67;55.44;99144.34;2619774;54;19954;-66
2022/08/02 06:33:01;;;;;;;;;;;;;;;21.70;55.61;99145.72;2620109;54;19939;-65
2022/08/02 06:35:35;;;;;;;;;;;;;;;21.83;55.95;99156.06;2620672;54;19942;-65
2022/08/02 06:38:05;;;;;;;;;;;;;;;21.95;55.25;99158.56;2619661;54;19985;-66
2022/08/02 06:40:42;;;;;;;;;;;;;;;21.84;55.34;99154.16;2621485;54;19938;-66
2022/08/02 06:43:14;;;;;;;;;;;;;;;21.80;55.31;99148.50;2621313;54;19990;-67
2022/08/02 06:45:43;;;;;;;;;;;;;;;21.86;55.34;99150.16;2621070;54;19942;-66
2022/08/02 06:48:13;;;;;;;;;;;;;;;21.97;54.94;99151.88;2621251;54;19939;-66
2022/08/02 06:50:43;;;;;;;;;;;;;;;22.15;54.83;99161.44;2623901;54;19953;-67
2022/08/02 06:53:13;;;;;;;;;;;;;;;22.28;54.94;99156.66;2624219;54;19947;-67
2022/08/02 06:55:46;;;;;;;;;;;;;;;22.42;54.58;99157.84;2624060;54;19945;-67
2022/08/02 06:58:15;;;;;;;;;;;;;;;22.35;54.04;99151.84;2623709;54;19943;-67
2022/08/02 07:00:45;;;;;;;;;;;;;;;22.24;54.38;99150.97;2621834;54;19951;-67
2022/08/02 07:03:14;;;;;;;;;;;;;;;22.19;54.25;99154.44;2619697;54;20461;-67
2022/08/02 07:05:47;;;;;;;;;;;;;;;22.19;54.96;99154.44;2619762;54;19938;-67
2022/08/02 07:08:16;;;;;;;;;;;;;;;22.28;54.57;99149.38;2619633;54;19947;-67
2022/08/02 07:10:48;;;;;;;;;;;;;;;22.37;54.42;99144.31;2619886;54;19945;-67
2022/08/02 07:13:19;;;;;;;;;;;;;;;22.44;53.85;99143.00;2619844;54;19945;-67
2022/08/02 07:15:49;;;;;;;;;;;;;;;22.59;53.43;99146.88;2619595;54;19998;-68
2022/08/02 07:18:18;;;;;;;;;;;;;;;22.61;53.40;99139.31;2619440;54;19967;-67
2022/08/02 07:20:48;;;;;;;;;;;;;;;22.64;53.43;99146.88;2619750;54;19959;-67
2022/08/02 07:23:17;;;;;;;;;;;;;;;22.78;53.17;99139.94;2620143;54;19947;-67
2022/08/02 07:25:50;;;;;;;;;;;;;;;22.87;52.55;99138.34;2619763;54;19946;-67
2022/08/02 07:28:32;;;;;;;;;;;;;;;22.98;52.73;99131.13;2619878;54;19939;-67
2022/08/02 07:31:01;;;;;;;;;;;;;;;23.09;52.62;99140.84;2620424;54;19970;-67
2022/08/02 07:33:31;;;;;;;;;;;;;;;23.13;52.17;99144.63;2619847;54;19938;-67
2022/08/02 07:36:07;;;;;;;;;;;;;;;23.18;52.40;99135.75;2620013;47;19938;-68
2022/08/02 07:38:44;;;;;;;;;;;;;;;23.18;52.08;99139.25;2619673;47;19950;-66
2022/08/02 07:41:17;;;;;;;;;;;;;;;23.24;51.65;99132.00;2619800;54;19939;-65
2022/08/02 07:43:46;;;;;;;;;;;;;;;23.17;52.01;99126.03;2619434;54;19946;-66
2022/08/02 07:46:16;;;;;;;;;;;;;;;23.31;52.04;99121.75;2619130;39;20353;-66
2022/08/02 07:48:47;;;;;;;;;;;;;;;23.51;51.92;99133.63;2619485;39;20327;-66
2022/08/02 07:51:17;;;;;;;;;;;;;;;23.71;51.48;99118.28;2619915;39;20338;-67
2022/08/02 07:53:46;;;;;;;;;;;;;;;23.84;50.04;99124.19;2619332;54;19970;-67
2022/08/02 07:56:32;;;;;;;;;;;;;;;23.93;50.38;99130.69;2618404;54;19950;-66
2022/08/02 07:59:01;;;;;;;;;;;;;;;23.97;48.75;99129.06;2619415;54;19953;-66
2022/08/02 08:01:31;;;;;;;;;;;;;;;24.01;48.76;99129.34;2619474;54;20415;-66
2022/08/02 08:04:00;;;;;;;;;;;;;;;24.09;48.65;99121.50;2619122;54;19946;-66
2022/08/02 08:06:30;;;;;;;;;;;;;;;24.15;46.87;99130.38;2619557;39;20333;-66
2022/08/02 08:08:59;;;;;;;;;;;;;;;24.17;46.04;99117.44;2619405;54;20474;-66
2022/08/02 08:11:29;;;;;;;;;;;;;;;24.27;44.59;99114.69;2618633;47;19956;-67
2022/08/02 08:14:01;;;;;;;;;;;;;;;24.32;44.15;99111.94;2618914;54;20711;-66
2022/08/02 08:16:30;;;;;;;;;;;;;;;24.41;43.90;99104.13;2619336;54;20057;-68
2022/08/02 08:19:01;;;;;;;;;;;;;;;24.48;44.25;99101.94;2621420;54;19939;-67
2022/08/02 08:21:31;;;;;;;;;;;;;;;24.73;44.54;99092.91;2622624;47;19958;-67
2022/08/02 08:24:01;;;;;;;;;;;;;;;24.92;43.88;99103.91;2622506;54;20062;-67
2022/08/02 08:26:30;;;;;;;;;;;;;;;24.96;43.92;99103.06;2622263;54;19939;-67
2022/08/02 08:29:05;;;;;;;;;;;;;;;24.99;44.15;99098.19;2621583;54;20434;-68
2022/08/02 08:31:34;;;;;;;;;;;;;;;24.96;43.69;99099.53;2620140;54;19946;-68
2022/08/02 08:34:04;;;;;;;;;;;;;;;25.11;43.75;99104.09;2619221;54;19946;-67
2022/08/02 08:36:36;;;;;;;;;;;;;;;25.24;43.84;99108.06;2618686;47;19953;-67
2022/08/02 08:39:07;;;;;;;;;;;;;;;25.36;43.28;99103.91;2619032;54;19966;-66
2022/08/02 08:41:37;;;;;;;;;;;;;;;25.52;42.06;99101.88;2619182;39;20326;-67
2022/08/02 08:44:09;;;;;;;;;;;;;;;25.44;41.49;99113.31;2619664;54;19943;-67
2022/08/02 08:46:53;;;;;;;;;;;;;;;25.30;42.18;99115.84;2619097;54;19951;-67
2022/08/02 08:49:29;;;;;;;;;;;;;;;25.45;41.36;99120.34;2620450;54;19950;-67
2022/08/02 08:52:02;;;;;;;;;;;;;;;25.38;41.56;99111.72;2619776;54;19938;-66
2022/08/02 08:54:37;;;;;;;;;;;;;;;25.53;41.83;99100.78;2620733;54;19953;-67
2022/08/02 08:57:07;;;;;;;;;;;;;;;25.71;40.34;99110.09;2620128;47;20449;-67
2022/08/02 08:59:40;;;;;;;;;;;;;;;25.77;40.28;99102.75;2620954;54;19939;-67
2022/08/02 09:02:14;;;;;;;;;;;;;;;25.84;39.19;99101.38;2622122;54;19939;-67
2022/08/02 09:04:51;;;;;;;;;;;;;;;25.88;38.99;99101.56;2624474;54;19946;-67
2022/08/02 09:07:23;;;;;;;;;;;;;;;25.87;39.14;99105.38;2623600;54;19939;-66
2022/08/02 09:09:52;;;;;;;;;;;;;;;25.83;39.67;99109.75;2625315;54;19947;-66
2022/08/02 09:12:24;;;;;;;;;;;;;;;25.96;38.79;99109.06;2624321;54;19939;-66
2022/08/02 09:14:57;;;;;;;;;;;;;;;26.07;39.65;99107.88;2624364;54;19939;-67
2022/08/02 09:17:26;;;;;;;;;;;;;;;26.29;38.88;99110.09;2622904;54;19938;-65
2022/08/02 09:20:07;;;;;;;;;;;;;;;26.39;38.36;99101.03;2621976;51;19939;-65
2022/08/02 09:22:37;;;;;;;;;;;;;;;26.54;38.15;99100.91;2621908;47;19959;-66
2022/08/02 09:25:07;;;;;;;;;;;;;;;26.69;37.63;99102.59;2623209;54;19946;-67
2022/08/02 09:27:37;;;;;;;;;;;;;;;26.74;37.20;99099.81;2622827;54;19938;-67
2022/08/02 09:30:15;;;;;;;;;;;;;;;26.80;37.13;99105.97;2622414;47;19954;-68
2022/08/02 09:32:48;;;;;;;;;;;;;;;26.80;36.47;99098.66;2623205;54;19939;-67
2022/08/02 09:35:32;;;;;;;;;;;;;;;26.75;36.70;99106.84;2622438;54;19958;-67
2022/08/02 09:38:21;;;;;;;;;;;;;;;26.61;36.77;99106.75;2621881;54;19947;-66
2022/08/02 09:40:54;;;;;;;;;;;;;;;26.67;36.80;99102.88;2623117;54;19947;-66
2022/08/02 09:43:23;;;;;;;;;;;;;;;26.56;37.32;99095.97;2622375;54;19951;-65
2022/08/02 09:45:55;;;;;;;;;;;;;;;26.69;36.71;99097.16;2623361;54;19939;-65
2022/08/02 09:48:25;;;;;;;;;;;;;;;26.78;37.14;99091.88;2622567;54;19939;-66
2022/08/02 09:50:57;;;;;;;;;;;;;;;26.95;37.12;99091.41;2623472;54;19965;-68
2022/08/02 09:53:27;;;;;;;;;;;;;;;27.15;36.82;99091.16;2623666;54;19945;-67
2022/08/02 09:55:57;;;;;;;;;;;;;;;27.40;36.55;99089.94;2623029;54;19947;-68
2022/08/02 09:58:26;;;;;;;;;;;;;;;27.61;35.92;99088.47;2622889;51;19943;-68
2022/08/02 10:01:00;;;;;;;;;;;;;;;27.63;34.95;99083.53;2622867;47;19951;-67
2022/08/02 10:03:30;;;;;;;;;;;;;;;27.55;35.23;99083.41;2624743;39;20357;-68
2022/08/02 10:06:07;;;;;;;;;;;;;;;27.75;34.89;99085.81;2624673;39;20338;-69
2022/08/02 10:08:37;;;;;;;;;;;;;;;27.85;34.87;99082.13;2623030;54;19947;-68
2022/08/02 10:11:06;;;;;;;;;;;;;;;27.96;34.38;99074.59;2624202;54;19950;-67
2022/08/02 10:13:37;;;;;;;;;;;;;;;27.99;34.17;99071.28;2623980;54;19962;-67
2022/08/02 10:16:09;;;;;;;;;;;;;;;28.09;33.59;99069.19;2621078;54;19954;-66
2022/08/02 16:18:02;;;;;;;;;;;;;;;32.60;23.36;98825.47;2619395;46;20490;-66
2022/08/02 16:20:31;;;;;;;;;;;;;;;32.43;22.93;98829.97;2619405;54;19946;-65
2022/08/02 16:23:01;;;;;;;;;;;;;;;32.40;23.35;98827.91;2619069;54;20055;-66
2022/08/02 16:25:32;;;;;;;;;;;;;;;32.31;23.35;98825.22;2618864;54;19947;-66
2022/08/02 16:28:08;;;;;;;;;;;;;;;32.19;23.20;98827.13;2618397;47;19951;-66
2022/08/02 16:30:37;;;;;;;;;;;;;;;32.10;23.63;98820.94;2619259;54;19994;-66
2022/08/02 16:33:09;;;;;;;;;;;;;;;32.01;23.59;98829.22;2619515;54;20467;-67
2022/08/02 16:35:38;;;;;;;;;;;;;;;31.96;23.60;98819.25;2619048;54;19973;-66
2022/08/02 16:38:14;;;;;;;;;;;;;;;31.79;23.50;98813.88;2619057;54;19946;-66
2022/08/02 16:40:43;;;;;;;;;;;;;;;31.81;23.98;98820.63;2619432;54;19945;-66
2022/08/02 16:43:12;;;;;;;;;;;;;;;31.81;23.69;98811.63;2619390;31;20422;-68
2022/08/02 16:45:42;;;;;;;;;;;;;;;31.72;23.99;98817.16;2618687;54;19938;-65
2022/08/02 16:48:15;;;;;;;;;;;;;;;31.77;23.90;98821.63;2619612;39;20361;-66
2022/08/02 16:50:45;;;;;;;;;;;;;;;31.78;23.99;98815.81;2619126;54;19939;-66
2022/08/02 16:53:15;;;;;;;;;;;;;;;31.79;24.12;98816.63;2618477;54;19946;-66
2022/08/02 16:56:05;;;;;;;;;;;;;;;31.67;24.25;98811.88;2618559;54;20041;-67
2022/08/02 16:58:34;;;;;;;;;;;;;;;31.49;24.35;98813.94;2618610;54;19939;-67
2022/08/02 17:01:05;;;;;;;;;;;;;;;31.42;24.50;98813.66;2618575;54;19994;-67
2022/08/02 17:03:37;;;;;;;;;;;;;;;31.34;24.57;98809.03;2618404;54;19939;-67
2022/08/02 17:06:26;;;;;;;;;;;;;;;31.16;24.74;98807.50;2618827;39;20367;-66
2022/08/02 17:08:56;;;;;;;;;;;;;;;31.15;24.44;98806.72;2618831;54;19953;-66
2022/08/02 17:11:27;;;;;;;;;;;;;;;31.09;24.79;98805.28;2618704;54;20029;-66
2022/08/02 17:13:56;;;;;;;;;;;;;;;31.02;24.87;98811.22;2619068;39;20338;-66
2022/08/02 17:16:27;;;;;;;;;;;;;;;30.88;25.05;98809.88;2619039;54;19951;-66
2022/08/02 17:18:59;;;;;;;;;;;;;;;30.74;24.90;98808.16;2619095;47;19949;-66
2022/08/02 17:21:30;;;;;;;;;;;;;;;30.74;25.33;98810.88;2619607;54;19946;-67
2022/08/02 17:24:00;;;;;;;;;;;;;;;30.75;25.54;98812.47;2619511;54;20445;-68
2022/08/02 17:26:36;;;;;;;;;;;;;;;30.68;25.50;98814.88;2619649;54;19946;-66
2022/08/02 17:29:06;;;;;;;;;;;;;;;30.65;25.97;98809.25;2620014;54;19958;-66
2022/08/02 17:31:45;;;;;;;;;;;;;;;30.64;25.58;98818.56;2619509;54;19962;-67
2022/08/02 17:34:37;;;;;;;;;;;;;;;30.55;25.69;98811.22;2619603;54;19947;-67
2022/08/02 17:37:07;;;;;;;;;;;;;;;30.57;25.65;98817.13;2619231;54;19947;-67
2022/08/02 17:39:37;;;;;;;;;;;;;;;30.63;25.91;98820.50;2619599;54;19946;-67
2022/08/02 17:42:20;;;;;;;;;;;;;;;30.72;25.82;98815.00;2619423;54;19946;-66
2022/08/02 17:44:52;;;;;;;;;;;;;;;30.91;25.71;98818.19;2619189;54;19965;-67
2022/08/02 17:47:22;;;;;;;;;;;;;;;31.24;25.75;98814.84;2619484;54;19940;-66
2022/08/02 17:50:01;;;;;;;;;;;;;;;31.78;24.81;98802.16;2619513;54;19946;-65
2022/08/02 17:52:31;;;;;;;;;;;;;;;32.49;24.43;98808.66;2619387;54;19946;-67
2022/08/02 17:55:21;;;;;;;;;;;;;;;33.16;23.96;98807.44;2619372;54;20551;-67
2022/08/02 17:57:51;;;;;;;;;;;;;;;33.63;23.51;98801.50;2618946;54;19946;-67
2022/08/02 18:00:40;;;;;;;;;;;;;;;33.74;23.33;98808.09;2619777;54;19955;-65
2022/08/02 18:03:13;;;;;;;;;;;;;;;33.62;23.21;98805.38;2619436;54;19946;-67
2022/08/02 18:05:45;;;;;;;;;;;;;;;33.22;23.10;98806.06;2619507;54;19938;-66
2022/08/02 18:08:23;;;;;;;;;;;;;;;32.79;23.68;98803.84;2619482;54;19969;-66
2022/08/02 18:10:54;;;;;;;;;;;;;;;32.46;23.50;98801.97;2619530;54;19943;-65
2022/08/02 18:13:24;;;;;;;;;;;;;;;32.01;24.61;98799.13;2619846;54;19990;-67
2022/08/02 18:16:00;;;;;;;;;;;;;;;31.61;24.28;98810.50;2619731;54;19938;-66
2022/08/02 18:18:32;;;;;;;;;;;;;;;31.27;25.03;98804.06;2619630;54;19947;-66
2022/08/02 18:21:04;;;;;;;;;;;;;;;31.05;25.33;98802.41;2619803;54;19950;-66
2022/08/02 18:23:50;;;;;;;;;;;;;;;30.87;25.40;98806.34;2619627;54;19970;-66
2022/08/02 18:26:27;;;;;;;;;;;;;;;30.72;25.93;98799.44;2619719;54;19961;-65
2022/08/02 18:28:57;;;;;;;;;;;;;;;30.58;25.75;98804.31;2619282;54;20422;-66
2022/08/02 18:31:26;;;;;;;;;;;;;;;30.47;26.17;98803.84;2619981;54;19947;-66
2022/08/02 18:33:55;;;;;;;;;;;;;;;30.40;26.48;98806.25;2619480;54;19946;-66
2022/08/02 18:36:33;;;;;;;;;;;;;;;30.29;26.66;98810.44;2619377;54;20067;-70
2022/08/02 18:39:03;;;;;;;;;;;;;;;30.17;26.58;98810.28;2619849;54;19951;-65
2022/08/02 18:41:37;;;;;;;;;;;;;;;30.07;27.25;98808.66;2619537;54;20071;-67
2022/08/02 18:44:06;;;;;;;;;;;;;;;29.93;26.91;98806.09;2619884;54;19954;-67
2022/08/02 18:46:38;;;;;;;;;;;;;;;29.78;27.48;98801.13;2619691;54;19954;-66
2022/08/02 18:49:11;;;;;;;;;;;;;;;29.66;27.46;98801.75;2619319;46;20078;-66
2022/08/02 18:51:46;;;;;;;;;;;;;;;29.55;27.70;98801.22;2619602;54;19938;-67
2022/08/02 18:54:15;;;;;;;;;;;;;;;29.44;28.23;98799.94;2620003;54;19953;-65
2022/08/02 18:56:58;;;;;;;;;;;;;;;29.36;28.39;98808.88;2619133;54;20034;-66
2022/08/02 18:59:28;;;;;;;;;;;;;;;29.32;28.28;98810.63;2619932;54;20462;-66
2022/08/02 19:02:05;;;;;;;;;;;;;;;29.23;28.63;98809.78;2620744;39;20338;-67
2022/08/02 19:04:34;;;;;;;;;;;;;;;29.15;28.42;98811.38;2619311;54;19939;-67
2022/08/02 19:07:06;;;;;;;;;;;;;;;29.05;28.72;98807.00;2619407;54;20442;-66
2022/08/02 19:09:37;;;;;;;;;;;;;;;28.98;29.01;98809.38;2619559;54;19990;-66
2022/08/02 19:12:09;;;;;;;;;;;;;;;28.93;29.00;98812.19;2619702;54;19994;-66
2022/08/02 19:14:39;;;;;;;;;;;;;;;28.87;29.31;98813.47;2619654;54;19946;-65
2022/08/02 19:17:09;;;;;;;;;;;;;;;28.84;29.64;98805.91;2620185;39;20606;-66
2022/08/02 19:19:58;;;;;;;;;;;;;;;28.81;29.74;98812.78;2619761;54;19938;-65